Terminal Aerodrome Forecast
Issued by NWS

Home | Current Version | Previous Version | Text Only | Print | Product List | Glossary On
Versions: 1 2 3 4 5 6 7 8 9 10 11 12 13 14 15 16 17 18 19
000
FTUS46 KEKA 290520
TAFCEC
TAF
KCEC 290520Z 2906/3006 17010KT P6SM OVC005
     FM290800 16005KT 6SM BR OVC004
     FM291100 23004KT 4SM BR OVC003
      TEMPO 2913/2916 1SM BR OVC002
     FM291900 24008KT 6SM HZ BKN007
     FM300200 21005KT 4SM BR OVC005=

USA.gov is the U.S. government's official web portal to all federal, state and local government web resources and services.